createdAt,value
2022-11-05T00:17:03.990Z,9.08
2022-11-05T00:37:04.056Z,9.12
2022-11-05T00:57:04.830Z,9.05
2022-11-05T01:57:03.899Z,8.92
2022-11-05T02:36:56.746Z,8.62
2022-11-05T02:56:56.724Z,8.49
2022-11-05T03:37:03.671Z,8.26
2022-11-05T03:57:10.604Z,8.04
2022-11-05T04:37:03.498Z,7.93
2022-11-05T04:56:56.571Z,7.89
2022-11-05T05:36:56.496Z,7.55
2022-11-05T05:56:56.357Z,7.37
2022-11-05T06:17:10.324Z,7.29
2022-11-05T06:36:56.368Z,7.2
2022-11-05T07:36:56.174Z,7.67
2022-11-05T07:56:56.172Z,8.09
2022-11-05T08:16:56.148Z,10.87
2022-11-05T08:36:56.074Z,12.19
2022-11-05T08:57:03.099Z,12.2
2022-11-05T09:17:09.991Z,13.56
2022-11-05T09:56:56.041Z,14.35
2022-11-05T10:16:55.829Z,14.13
2022-11-05T10:37:02.776Z,14.47
2022-11-05T10:56:55.833Z,13.75
2022-11-05T11:16:55.703Z,13.11
2022-11-05T11:37:11.184Z,13.08
2022-11-05T12:16:55.645Z,12.66
2022-11-05T12:37:02.501Z,12.41
2022-11-05T12:56:55.464Z,12.91
2022-11-05T13:17:02.547Z,13.56
2022-11-05T13:36:55.366Z,12.95
2022-11-05T13:56:55.354Z,12.51
2022-11-05T14:17:09.297Z,12.43
2022-11-05T14:36:55.255Z,12.3
2022-11-05T14:57:09.213Z,11.65
2022-11-05T15:17:02.170Z,10.59
2022-11-05T15:37:02.131Z,9.68
2022-11-05T16:16:55.053Z,7.6
2022-11-05T16:36:55.118Z,6.64
2022-11-05T16:57:08.975Z,6.18
2022-11-05T17:16:55.070Z,5.66
2022-11-05T17:57:02.086Z,5.27
2022-11-05T18:16:54.997Z,4.97
2022-11-05T18:56:54.848Z,4
2022-11-05T19:16:54.970Z,3.78
2022-11-05T19:37:08.713Z,3.61
2022-11-05T19:57:08.680Z,3.46
2022-11-05T20:37:01.667Z,3.35
2022-11-05T21:36:54.600Z,3.43
2022-11-05T21:56:54.592Z,3.46
2022-11-05T22:17:08.502Z,3.27
2022-11-05T22:36:54.448Z,2.95
2022-11-05T22:57:08.452Z,3.24
2022-11-05T23:17:01.433Z,3.33
2022-11-05T23:37:01.442Z,3.6
